Time;durP1;ratioP1;P1;durP2;ratioP2;P2;SDS_P1;SDS_P2;PMS_P1;PMS_P2;Temp;Humidity;BMP_temperature;BMP_pressure;BME280_temperature;BME280_humidity;BME280_pressure;Samples;Min_cycle;Max_cycle;Signal;HPM_P1;HPM_P2
2021/01/08 00:01:00;;;;;;;1999.90;999.90;;;3.70;99.90;;;;;;4852388;29;20065;-95
2021/01/08 00:03:28;;;;;;;1999.90;999.90;;;3.70;99.90;;;;;;4861273;29;20065;-94
2021/01/08 00:05:56;;;;;;;1999.90;999.90;;;3.80;99.90;;;;;;4861719;29;20071;-95
2021/01/08 00:08:23;;;;;;;1999.90;999.90;;;3.70;99.90;;;;;;4861933;29;20142;-95
2021/01/08 00:10:50;;;;;;;1999.90;999.90;;;3.80;99.90;;;;;;4861348;29;20086;-95
2021/01/08 00:13:47;;;;;;;1999.90;999.90;;;3.70;99.90;;;;;;4856137;29;20061;-96
2021/01/08 00:20:04;;;;;;;1999.90;999.90;;;3.80;99.90;;;;;;4900680;29;20083;-96
2021/01/08 00:22:31;;;;;;;1999.90;999.90;;;3.80;99.90;;;;;;4900080;29;20116;-96
2021/01/08 00:24:58;;;;;;;1999.90;999.90;;;3.80;99.90;;;;;;4900290;29;20120;-95
2021/01/08 00:27:25;;;;;;;1999.90;999.90;;;3.80;99.90;;;;;;4899927;29;20080;-95
2021/01/08 00:29:53;;;;;;;1999.90;999.90;;;3.80;99.90;;;;;;4901323;29;20113;-95
2021/01/08 00:32:27;;;;;;;1999.90;999.90;;;3.70;99.90;;;;;;4900009;29;20163;-95
2021/01/08 00:34:55;;;;;;;1999.90;999.90;;;3.70;99.90;;;;;;4899884;29;20053;-95
2021/01/08 00:37:26;;;;;;;1999.90;999.90;;;3.70;99.90;;;;;;4899728;29;20123;-95
2021/01/08 00:39:53;;;;;;;1999.90;999.90;;;3.70;99.90;;;;;;4900539;29;20053;-95
2021/01/08 00:46:20;;;;;;;1999.90;999.90;;;3.70;99.90;;;;;;4899724;29;20044;-95
2021/01/08 00:49:01;;;;;;;1999.90;999.90;;;3.70;99.90;;;;;;4899789;29;20416;-95
2021/01/08 00:51:29;;;;;;;1999.90;999.90;;;3.70;99.90;;;;;;4917968;29;20107;-94
2021/01/08 00:53:57;;;;;;;1999.90;999.90;;;3.70;99.90;;;;;;4937524;29;20554;-95
2021/01/08 00:57:33;;;;;;;1999.90;999.90;;;3.70;99.90;;;;;;4879485;29;20144;-95
2021/01/08 01:02:49;;;;;;;1999.90;999.90;;;3.70;99.90;;;;;;4878374;29;20112;-94
2021/01/08 01:05:19;;;;;;;1999.90;999.90;;;3.70;99.90;;;;;;4879731;29;20068;-95
2021/01/08 01:07:46;;;;;;;1999.90;999.90;;;3.70;99.90;;;;;;4879373;29;20568;-94
2021/01/08 01:10:14;;;;;;;1999.90;999.90;;;3.70;99.90;;;;;;4883096;29;20052;-96
2021/01/08 01:12:41;;;;;;;1999.90;999.90;;;3.80;99.90;;;;;;4882990;29;20073;-93
2021/01/08 01:15:19;;;;;;;;;;;;;;;;;;;;;
2021/01/08 01:22:17;;;;;;;1999.90;999.90;;;3.70;99.90;;;;;;4845459;29;20081;-93
2021/01/08 01:24:44;;;;;;;1999.90;999.90;;;3.70;99.90;;;;;;4860503;29;20061;-93
2021/01/08 01:27:21;;;;;;;1999.90;999.90;;;3.80;99.90;;;;;;4906026;29;20142;-93
2021/01/08 01:29:51;;;;;;;1999.90;999.90;;;3.70;99.90;;;;;;4941302;29;20059;-94
2021/01/08 01:32:21;;;;;;;1999.90;999.90;;;3.70;99.90;;;;;;4940770;29;20138;-93
2021/01/08 01:34:49;;;;;;;1999.90;999.90;;;3.70;99.90;;;;;;4940523;29;20066;-94
2021/01/08 01:37:15;;;;;;;1999.90;999.90;;;3.80;99.90;;;;;;4940735;29;20079;-94
2021/01/08 01:39:42;;;;;;;1999.90;999.90;;;3.70;99.90;;;;;;4941076;29;20467;-95
2021/01/08 01:42:10;;;;;;;1999.90;999.90;;;3.80;99.90;;;;;;4941245;29;20075;-94
2021/01/08 01:44:52;;;;;;;1999.90;999.90;;;3.70;99.90;;;;;;4930868;29;20056;-93
2021/01/08 01:47:38;;;;;;;1999.90;999.90;;;3.70;99.90;;;;;;4940411;29;20086;-93
2021/01/08 01:50:08;;;;;;;1999.90;999.90;;;3.70;99.90;;;;;;4940718;29;20059;-94
2021/01/08 01:52:36;;;;;;;1999.90;999.90;;;3.80;99.90;;;;;;4939341;29;20071;-93
2021/01/08 01:55:03;;;;;;;1999.90;999.90;;;3.70;99.90;;;;;;4940854;29;20048;-94
2021/01/08 01:57:31;;;;;;;1999.90;999.90;;;3.70;99.90;;;;;;4940449;29;20496;-93
2021/01/08 02:00:09;;;;;;;;;;;;;;;;;;;;;
2021/01/08 02:10:59;;;;;;;;;;;3.80;99.90;;;;;;4862168;29;20451;-93
2021/01/08 02:21:42;;;;;;;1999.90;999.90;;;3.80;99.90;;;;;;4843933;29;20065;-92
2021/01/08 02:24:36;;;;;;;1999.90;999.90;;;3.80;99.90;;;;;;4868031;29;20057;-93
2021/01/08 02:27:04;;;;;;;1999.90;999.90;;;3.70;99.90;;;;;;4881863;29;20133;-93
2021/01/08 02:29:32;;;;;;;1999.90;999.90;;;3.70;99.90;;;;;;4881384;29;20060;-93
2021/01/08 02:32:33;;;;;;;1999.90;999.90;;;3.70;99.90;;;;;;4881410;29;20057;-93
2021/01/08 02:46:50;;;;;;;1999.90;999.90;;;3.70;99.90;;;;;;4899927;29;20154;-93
2021/01/08 02:50:03;;;;;;;1999.90;999.90;;;3.60;99.90;;;;;;4899462;29;20083;-93
2021/01/08 02:52:31;;;;;;;1999.90;999.90;;;3.60;99.90;;;;;;4899158;29;20057;-93
2021/01/08 02:55:02;;;;;;;1999.90;999.90;;;3.60;99.90;;;;;;4899942;29;20178;-92
2021/01/08 02:57:31;;;;;;;1999.90;999.90;;;3.60;99.90;;;;;;4899603;29;20056;-93
2021/01/08 03:00:00;;;;;;;1999.90;999.90;;;3.70;99.90;;;;;;4899392;29;20068;-93
2021/01/08 03:02:35;;;;;;;1999.90;999.90;;;3.70;99.90;;;;;;4904704;29;20064;-93
2021/01/08 03:05:38;;;;;;;1999.90;999.90;;;3.70;99.90;;;;;;4920132;29;20076;-93
2021/01/08 03:11:58;;;;;;;;;;;3.70;99.90;;;;;;4920177;29;20108;-92
2021/01/08 03:25:18;;;;;;;1999.90;999.90;;;3.60;99.90;;;;;;4904910;29;20498;-93
2021/01/08 03:31:42;;;;;;;1999.90;999.90;;;3.60;99.90;;;;;;4919298;29;20043;-93
2021/01/08 03:38:14;;;;;;;1999.90;999.90;;;3.60;99.90;;;;;;4862660;29;20102;-93
2021/01/08 03:45:51;;;;;;;1999.90;999.90;;;3.60;99.90;;;;;;4817649;29;20036;-94
2021/01/08 03:48:22;;;;;;;1999.90;999.90;;;3.60;99.90;;;;;;4824245;29;20109;-93
2021/01/08 03:50:49;;;;;;;1999.90;999.90;;;3.50;99.90;;;;;;4864620;29;20129;-93
2021/01/08 03:53:23;;;;;;;1999.90;999.90;;;3.50;99.90;;;;;;4880655;29;20060;-92
2021/01/08 03:59:36;;;;;;;1999.90;999.90;;;3.50;99.90;;;;;;4879633;29;20109;-93
2021/01/08 04:02:14;;;;;;;1999.90;999.90;;;3.50;99.90;;;;;;4879445;29;20057;-93
2021/01/08 04:16:08;;;;;;;1999.90;999.90;;;3.60;99.90;;;;;;4884835;29;20043;-94
2021/01/08 04:19:00;;;;;;;1999.90;999.90;;;3.60;99.90;;;;;;4937446;29;20055;-93
2021/01/08 04:25:53;;;;;;;1999.90;999.90;;;3.50;99.90;;;;;;4889480;29;20066;-93
2021/01/08 04:32:16;;;;;;;1999.90;999.90;;;3.50;99.90;;;;;;4937753;29;20054;-93
2021/01/08 04:34:58;;;;;;;1999.90;999.90;;;3.50;99.90;;;;;;4934176;29;20067;-94
2021/01/08 04:44:37;;;;;;;1999.90;999.90;;;3.50;99.90;;;;;;4937255;29;20296;-93
2021/01/08 04:47:04;;;;;;;1999.90;999.90;;;3.50;99.90;;;;;;4937517;29;20059;-93
2021/01/08 04:57:17;;;;;;;1999.90;999.90;;;3.40;99.90;;;;;;4881146;29;20052;-91
2021/01/08 04:59:44;;;;;;;1999.90;999.90;;;3.30;99.90;;;;;;4900644;29;20086;-93
2021/01/08 05:02:24;;;;;;;1999.90;999.90;;;3.30;99.90;;;;;;4938727;29;20076;-93
2021/01/08 05:04:51;;;;;;;1999.90;999.90;;;3.30;99.90;;;;;;4937085;29;20131;-92
2021/01/08 05:07:44;;;;;;;1999.90;999.90;;;3.30;99.90;;;;;;4937793;29;20056;-92
2021/01/08 05:10:36;;;;;;;1999.90;999.90;;;3.30;99.90;;;;;;4937033;29;20071;-92
2021/01/08 05:13:05;;;;;;;1999.90;999.90;;;3.30;99.90;;;;;;4936825;29;20080;-92
2021/01/08 05:15:32;;;;;;;1999.90;999.90;;;3.20;99.90;;;;;;4937172;29;20086;-92
2021/01/08 05:18:00;;;;;;;1999.90;999.90;;;3.20;99.90;;;;;;4937658;29;20091;-92
2021/01/08 05:20:27;;;;;;;1999.90;999.90;;;3.20;99.90;;;;;;4936889;29;20051;-92
2021/01/08 05:22:57;;;;;;;1999.90;999.90;;;3.20;99.90;;;;;;4937742;29;20111;-92
2021/01/08 05:25:26;;;;;;;1999.90;999.90;;;3.20;99.90;;;;;;4937094;29;20059;-92
2021/01/08 05:27:54;;;;;;;1999.90;999.90;;;3.20;99.90;;;;;;4936858;29;20463;-91
2021/01/08 05:30:25;;;;;;;1999.90;999.90;;;3.20;99.90;;;;;;4937116;29;20051;-92
2021/01/08 05:32:57;;;;;;;1999.90;999.90;;;3.20;99.90;;;;;;4937374;29;20056;-92
2021/01/08 05:35:25;;;;;;;1999.90;999.90;;;3.10;99.90;;;;;;4937334;29;20059;-92
2021/01/08 05:37:54;;;;;;;1999.90;999.90;;;3.20;99.90;;;;;;4937206;29;20063;-93
2021/01/08 05:40:26;;;;;;;1999.90;999.90;;;3.20;99.90;;;;;;4917582;29;20079;-92
2021/01/08 05:51:01;;;;;;;1999.90;999.90;;;3.10;99.90;;;;;;4856755;29;20102;-92
2021/01/08 05:57:07;;;;;;;1999.90;999.90;;;3.10;99.90;;;;;;4786116;29;20122;-91
2021/01/08 05:59:45;;;;;;;1999.90;999.90;;;3.10;99.90;;;;;;4808176;29;20047;-92
2021/01/08 06:02:27;;;;;;;1999.90;999.90;;;3.10;99.90;;;;;;4808877;29;20054;-92
2021/01/08 06:05:08;;;;;;;1999.90;999.90;;;3.00;99.90;;;;;;4817989;29;20135;-92
2021/01/08 06:07:50;;;;;;;1999.90;999.90;;;3.00;99.90;;;;;;4826285;29;20070;-92
2021/01/08 06:10:25;;;;;;;1999.90;999.90;;;3.00;99.90;;;;;;4826003;29;20141;-92
2021/01/08 06:12:52;;;;;;;1999.90;999.90;;;3.00;99.90;;;;;;4827253;29;20115;-92
2021/01/08 06:15:20;;;;;;;1999.90;999.90;;;3.00;99.90;;;;;;4862718;29;20162;-92
2021/01/08 06:17:48;;;;;;;1999.90;999.90;;;3.00;99.90;;;;;;4863831;29;20092;-92
2021/01/08 06:20:18;;;;;;;1999.90;999.90;;;3.00;99.90;;;;;;4862948;29;20089;-92
2021/01/08 06:22:45;;;;;;;1999.90;999.90;;;3.00;99.90;;;;;;4901374;29;20067;-91
2021/01/08 06:25:20;;;;;;;1999.90;999.90;;;3.00;99.90;;;;;;4902064;29;20550;-92
2021/01/08 06:28:16;;;;;;;1999.90;999.90;;;3.00;99.90;;;;;;4901818;29;20140;-94
2021/01/08 06:30:46;;;;;;;1999.90;999.90;;;3.00;99.90;;;;;;4901405;29;20489;-92
2021/01/08 06:33:21;;;;;;;1999.90;999.90;;;3.00;99.90;;;;;;4901454;29;20116;-92
2021/01/08 06:42:10;;;;;;;1999.90;999.90;;;3.00;99.90;;;;;;4840895;29;20408;-96
2021/01/08 06:44:37;;;;;;;1999.90;999.90;;;3.00;99.90;;;;;;4914091;29;20055;-95
2021/01/08 06:47:05;;;;;;;1999.90;999.90;;;2.90;99.90;;;;;;4919908;29;20056;-95
2021/01/08 06:52:57;;;;;;;1999.90;999.90;;;3.00;99.90;;;;;;4920336;29;20059;-96
2021/01/08 06:55:57;;;;;;;1999.90;999.90;;;3.00;99.90;;;;;;4936796;29;20136;-95
2021/01/08 07:01:52;;;;;;;1999.90;999.90;;;2.90;99.90;;;;;;4930664;29;20071;-96
2021/01/08 07:04:25;;;;;;;1999.90;999.90;;;3.00;99.90;;;;;;4925790;29;20060;-96
2021/01/08 07:07:35;;;;;;;1999.90;999.90;;;2.90;99.90;;;;;;4938838;29;20086;-95
2021/01/08 07:10:04;;;;;;;1999.90;999.90;;;3.00;99.90;;;;;;4939070;29;20055;-95
2021/01/08 07:12:32;;;;;;;1999.90;999.90;;;3.00;99.90;;;;;;4935968;29;20126;-96
2021/01/08 07:15:00;;;;;;;1999.90;999.90;;;3.00;99.90;;;;;;4929177;29;20071;-96
2021/01/08 07:17:31;;;;;;;1999.90;999.90;;;2.90;99.90;;;;;;4940747;29;20115;-95
2021/01/08 07:20:01;;;;;;;1999.90;999.90;;;3.00;99.90;;;;;;4950213;29;20064;-96
2021/01/08 07:22:33;;;;;;;1999.90;999.90;;;2.90;99.90;;;;;;4933335;29;20063;-94
2021/01/08 07:25:05;;;;;;;1999.90;999.90;;;2.90;99.90;;;;;;4935537;29;20059;-95
2021/01/08 07:27:41;;;;;;;1999.90;999.90;;;2.90;99.90;;;;;;4949524;29;20052;-93
2021/01/08 07:36:54;;;;;;;1999.90;999.90;;;3.00;99.90;;;;;;4861393;29;20207;-92
2021/01/08 07:39:38;;;;;;;1999.90;999.90;;;2.90;99.90;;;;;;4861674;29;20050;-93
2021/01/08 07:53:50;;;;;;;1999.90;999.90;;;2.90;99.90;;;;;;4674481;30;20065;-95
2021/01/08 07:56:31;;;;;;;1999.90;999.90;;;2.80;99.90;;;;;;4708941;30;20494;-95
2021/01/08 07:59:15;;;;;;;1999.90;999.90;;;2.80;99.90;;;;;;4734528;30;20493;-95
2021/01/08 08:01:55;;;;;;;1999.90;999.90;;;2.80;99.90;;;;;;4736267;30;20060;-94
2021/01/08 08:04:39;;;;;;;1999.90;999.90;;;2.80;99.90;;;;;;4735577;30;20111;-94
2021/01/08 08:11:43;;;;;;;1999.90;999.90;;;2.80;99.90;;;;;;4714952;29;20156;-94
2021/01/08 08:14:32;;;;;;;1999.90;999.90;;;2.70;99.90;;;;;;4735188;30;20056;-95
2021/01/08 08:17:22;;;;;;;1999.90;999.90;;;2.70;99.90;;;;;;4752866;29;20062;-94
2021/01/08 08:19:57;;;;;;;1999.90;999.90;;;2.70;99.90;;;;;;4805546;29;20051;-94
2021/01/08 08:23:05;;;;;;;1999.90;999.90;;;2.60;99.90;;;;;;4819527;29;20483;-95
2021/01/08 08:26:03;;;;;;;1999.90;999.90;;;2.60;99.90;;;;;;4903253;29;20060;-93
2021/01/08 08:28:47;;;;;;;1999.90;999.90;;;2.60;99.90;;;;;;4938852;29;20443;-93
2021/01/08 08:31:14;;;;;;;1999.90;999.90;;;2.60;99.90;;;;;;4938059;29;20058;-93
2021/01/08 08:33:59;;;;;;;1999.90;999.90;;;2.60;99.90;;;;;;4927589;29;20052;-93
2021/01/08 08:39:54;;;;;;;1999.90;999.90;;;2.50;99.90;;;;;;4937891;29;20047;-93
2021/01/08 08:42:30;;;;;;;1999.90;999.90;;;2.50;99.90;;;;;;4938625;29;20051;-93
2021/01/08 08:45:53;;;;;;;1999.90;999.90;;;2.50;99.90;;;;;;4878873;29;20059;-93
2021/01/08 08:48:26;;;;;;;1999.90;999.90;;;2.50;99.90;;;;;;4880165;29;20076;-93
2021/01/08 08:53:57;;;;;;;1999.90;999.90;;;2.40;99.90;;;;;;4867275;29;20065;-92
2021/01/08 08:56:25;;;;;;;1999.90;999.90;;;2.40;99.90;;;;;;4898695;29;20060;-93
2021/01/08 08:58:55;;;;;;;1999.90;999.90;;;2.40;99.90;;;;;;4897913;29;20587;-93
2021/01/08 09:05:02;;;;;;;1999.90;999.90;;;2.40;99.90;;;;;;4958217;29;20058;-93
2021/01/08 09:08:09;;;;;;;1999.90;999.90;;;2.40;99.90;;;;;;4955318;29;20371;-93
2021/01/08 09:10:50;;;;;;;1999.90;999.90;;;2.40;99.90;;;;;;4947169;29;20075;-95
2021/01/08 09:13:49;;;;;;;1999.90;999.90;;;2.40;99.90;;;;;;4937846;29;20051;-94
2021/01/08 09:16:37;;;;;;;1999.90;999.90;;;2.40;99.90;;;;;;4860492;29;20054;-94
2021/01/08 09:19:27;;;;;;;1999.90;999.90;;;2.40;99.90;;;;;;4862865;29;20056;-95
2021/01/08 09:22:19;;;;;;;1999.90;999.90;;;2.50;99.90;;;;;;4931755;29;20474;-95
2021/01/08 09:25:19;;;;;;;1999.90;999.90;;;2.40;99.90;;;;;;4910902;29;20478;-94
2021/01/08 09:27:50;;;;;;;1999.90;999.90;;;2.50;99.90;;;;;;4941291;29;20060;-95
2021/01/08 09:30:55;;;;;;;1999.90;999.90;;;2.50;99.90;;;;;;4940278;29;20063;-95
2021/01/08 09:33:39;;;;;;;;;;;;;;;;;;;;;
2021/01/08 09:39:48;;;;;;;1999.90;999.90;;;2.60;99.90;;;;;;4845067;29;20520;-96
2021/01/08 09:43:02;;;;;;;1999.90;999.90;;;2.70;99.90;;;;;;4870715;29;20402;-96
2021/01/08 09:46:26;;;;;;;;;;;;;;;;;;;;;
2021/01/08 09:49:13;;;;;;;1999.90;999.90;;;2.80;99.90;;;;;;4864038;29;20081;-96
2021/01/08 09:52:27;;;;;;;1999.90;999.90;;;2.80;99.90;;;;;;4863465;29;20059;-95
2021/01/08 10:15:40;;;;;;;1999.90;999.90;;;3.30;99.90;;;;;;6226167;23;20095;-96
2021/01/08 10:26:30;;;;;;;1999.90;999.90;;;3.40;99.90;;;;;;6076099;23;20033;-95
2021/01/08 10:29:16;;;;;;;1999.90;999.90;;;3.50;99.90;;;;;;6075802;23;20553;-96
2021/01/08 10:32:19;;;;;;;1999.90;999.90;;;3.50;99.90;;;;;;6076752;23;20029;-96
2021/01/08 10:34:55;;;;;;;1999.90;999.90;;;3.60;99.90;;;;;;6075522;23;20022;-95
2021/01/08 10:37:37;;;;;;;1999.90;999.90;;;3.60;99.90;;;;;;6099509;23;20428;-96
2021/01/08 10:40:19;;;;;;;1999.90;999.90;;;3.60;99.90;;;;;;6226322;23;20047;-96
2021/01/08 10:43:02;;;;;;;1999.90;999.90;;;3.70;99.90;;;;;;6173708;23;20025;-95
2021/01/08 10:45:55;;;;;;;;;;;;;;;;;;;;;
2021/01/08 10:51:14;;;;;;;1999.90;999.90;;;3.80;99.90;;;;;;6222096;23;20020;-94
2021/01/08 10:57:44;;;;;;;1999.90;999.90;;;3.90;99.90;;;;;;6164480;23;20044;-96
2021/01/08 11:04:25;;;;;;;1999.90;999.90;;;4.00;99.90;;;;;;6019093;23;20042;-96
2021/01/08 11:06:56;;;;;;;1999.90;999.90;;;4.00;99.90;;;;;;6017746;23;20022;-96
2021/01/08 11:09:32;;;;;;;1999.90;999.90;;;4.00;99.90;;;;;;6012009;23;20125;-95
2021/01/08 11:20:37;;;;;;;1999.90;999.90;;;4.10;99.90;;;;;;6012656;23;20018;-96
2021/01/08 11:23:04;;;;;;;1999.90;999.90;;;4.10;99.90;;;;;;6011961;23;20066;-95
2021/01/08 11:25:32;;;;;;;1999.90;999.90;;;4.10;99.90;;;;;;6081293;23;20418;-96
2021/01/08 11:43:19;;;;;;;1999.90;999.90;;;4.20;99.90;;;;;;6098012;23;20014;-96
2021/01/08 11:49:30;;;;;;;1999.90;999.90;;;4.20;99.90;;;;;;6111474;23;20009;-96
2021/01/08 11:55:38;;;;;;;1999.90;999.90;;;4.20;99.90;;;;;;6156432;23;19966;-93
2021/01/08 11:58:32;;;;;;;1999.90;999.90;;;4.30;99.90;;;;;;6156259;23;20425;-94
2021/01/08 12:01:54;;;;;;;;;;;;;;;;;;;;;
2021/01/08 12:04:25;;;;;;;1999.90;999.90;;;4.40;99.90;;;;;;6151139;23;20060;-94
2021/01/08 12:15:41;;;;;;;1999.90;999.90;;;4.40;99.90;;;;;;6067501;23;20031;-94
2021/01/08 12:18:39;;;;;;;1999.90;999.90;;;4.40;99.90;;;;;;6068078;23;20026;-93
2021/01/08 12:21:17;;;;;;;1999.90;999.90;;;4.40;99.90;;;;;;6067586;23;20555;-94
2021/01/08 12:23:50;;;;;;;1999.90;999.90;;;4.40;99.90;;;;;;6091268;23;20096;-93
2021/01/08 12:26:51;;;;;;;1999.90;999.90;;;4.40;99.90;;;;;;5955687;24;20149;-93
2021/01/08 12:29:21;;;;;;;1999.90;999.90;;;4.40;99.90;;;;;;5956103;24;20028;-93
2021/01/08 12:31:54;;;;;;;1999.90;999.90;;;4.50;99.90;;;;;;6028404;23;20454;-93
2021/01/08 12:34:34;;;;;;;1999.90;999.90;;;4.50;99.90;;;;;;6080476;23;20045;-94
2021/01/08 12:37:50;;;;;;;1999.90;999.90;;;4.50;99.90;;;;;;6072469;23;20030;-93
2021/01/08 12:40:48;;;;;;;1999.90;999.90;;;4.50;99.90;;;;;;6061936;23;20027;-93
2021/01/08 12:43:31;;;;;;;1999.90;999.90;;;4.50;99.90;;;;;;6041108;23;20026;-93
2021/01/08 12:46:05;;;;;;;1999.90;999.90;;;4.60;99.90;;;;;;6218169;23;20016;-93
2021/01/08 12:48:44;;;;;;;1999.90;999.90;;;4.60;99.90;;;;;;6218832;23;20024;-93
2021/01/08 12:51:26;;;;;;;1999.90;999.90;;;4.60;99.90;;;;;;6218261;23;20036;-93
2021/01/08 12:53:53;;;;;;;1999.90;999.90;;;4.50;99.90;;;;;;6217604;23;20023;-93
2021/01/08 12:56:30;;;;;;;1999.90;999.90;;;4.60;99.90;;;;;;6217772;23;20012;-93
2021/01/08 12:59:07;;;;;;;1999.90;999.90;;;4.50;99.90;;;;;;6217537;23;20023;-94
2021/01/08 13:01:39;;;;;;;1999.90;999.90;;;4.60;99.90;;;;;;6218091;23;20074;-92
2021/01/08 13:04:11;;;;;;;1999.90;999.90;;;4.60;99.90;;;;;;6218334;23;20070;-92
2021/01/08 13:06:44;;;;;;;1999.90;999.90;;;4.50;99.90;;;;;;6219466;23;20020;-92
2021/01/08 13:09:12;;;;;;;1999.90;999.90;;;4.50;99.90;;;;;;6219726;23;20020;-91
2021/01/08 13:11:39;;;;;;;1999.90;999.90;;;4.50;99.90;;;;;;6220018;23;20100;-92
2021/01/08 13:14:09;;;;;;;1999.90;999.90;;;4.50;99.90;;;;;;6218708;23;20021;-91
2021/01/08 13:16:36;;;;;;;1999.90;999.90;;;4.50;99.90;;;;;;6216627;23;20023;-92
2021/01/08 13:19:04;;;;;;;1999.90;999.90;;;4.50;99.90;;;;;;6216458;23;20020;-92
2021/01/08 13:21:33;;;;;;;1999.90;999.90;;;4.50;99.90;;;;;;6217493;23;20017;-93
2021/01/08 13:24:02;;;;;;;1999.90;999.90;;;4.50;99.90;;;;;;6216831;23;20021;-93
2021/01/08 13:26:47;;;;;;;1999.90;999.90;;;4.40;99.90;;;;;;6126002;23;20021;-94
2021/01/08 13:29:22;;;;;;;1999.90;999.90;;;4.40;99.90;;;;;;6154664;23;20379;-94
2021/01/08 13:32:14;;;;;;;1999.90;999.90;;;4.40;99.90;;;;;;6155344;23;20018;-93
2021/01/08 13:34:50;;;;;;;1999.90;999.90;;;4.40;99.90;;;;;;6156448;23;20028;-94
2021/01/08 13:37:41;;;;;;;1999.90;999.90;;;4.40;99.90;;;;;;6155608;23;20041;-95
2021/01/08 13:40:14;;;;;;;1999.90;999.90;;;4.40;99.90;;;;;;6155999;23;20100;-94
2021/01/08 13:46:45;;;;;;;1999.90;999.90;;;4.40;99.90;;;;;;6099886;23;20171;-93
2021/01/08 13:49:38;;;;;;;1999.90;999.90;;;4.40;99.90;;;;;;6156057;23;20101;-93
2021/01/08 13:52:12;;;;;;;1999.90;999.90;;;4.40;99.90;;;;;;6157902;23;20044;-95
2021/01/08 13:54:52;;;;;;;1999.90;999.90;;;4.30;99.90;;;;;;6157657;23;20021;-95
2021/01/08 13:57:48;;;;;;;1999.90;999.90;;;4.30;99.90;;;;;;6158272;23;20025;-94
2021/01/08 14:00:20;;;;;;;1999.90;999.90;;;4.30;99.90;;;;;;6219926;23;20431;-93
2021/01/08 14:02:48;;;;;;;1999.90;999.90;;;4.20;99.90;;;;;;6219279;23;20365;-94
2021/01/08 14:06:10;;;;;;;1999.90;999.90;;;4.30;99.90;;;;;;6218510;23;20028;-94
2021/01/08 14:13:09;;;;;;;1999.90;999.90;;;4.20;99.90;;;;;;6156102;23;20037;-94
2021/01/08 14:16:13;;;;;;;1999.90;999.90;;;4.20;99.90;;;;;;6161161;23;20059;-94
2021/01/08 14:19:02;;;;;;;1999.90;999.90;;;4.20;99.90;;;;;;6197692;23;20021;-94
2021/01/08 14:21:56;;;;;;;1999.90;999.90;;;4.10;99.90;;;;;;6218830;23;20321;-94
2021/01/08 14:24:49;;;;;;;1999.90;999.90;;;4.10;99.90;;;;;;6219258;23;20436;-94
2021/01/08 14:27:54;;;;;;;1999.90;999.90;;;4.10;99.90;;;;;;6217250;23;20033;-94
2021/01/08 14:30:27;;;;;;;1999.90;999.90;;;4.10;99.90;;;;;;6217966;23;20021;-94
2021/01/08 14:33:00;;;;;;;1999.90;999.90;;;4.00;99.90;;;;;;6217284;23;20021;-93
2021/01/08 14:35:27;;;;;;;1999.90;999.90;;;4.00;99.90;;;;;;6217772;23;20020;-93
2021/01/08 14:37:55;;;;;;;1999.90;999.90;;;4.00;99.90;;;;;;6217866;23;20013;-93
2021/01/08 14:40:22;;;;;;;1999.90;999.90;;;4.00;99.90;;;;;;6217452;23;20020;-93
2021/01/08 14:42:50;;;;;;;1999.90;999.90;;;3.90;99.90;;;;;;6217664;23;20104;-93
2021/01/08 14:45:28;;;;;;;1999.90;999.90;;;3.90;99.90;;;;;;6218821;23;20017;-93
2021/01/08 14:47:58;;;;;;;1999.90;999.90;;;3.90;99.90;;;;;;6220669;23;20424;-95
2021/01/08 14:50:26;;;;;;;1999.90;999.90;;;3.90;99.90;;;;;;6220583;23;20076;-95
2021/01/08 14:52:53;;;;;;;1999.90;999.90;;;3.90;99.90;;;;;;6220130;23;20016;-95
2021/01/08 14:55:29;;;;;;;1999.90;999.90;;;3.90;99.90;;;;;;6223892;23;20024;-96
2021/01/08 14:57:56;;;;;;;1999.90;999.90;;;3.80;99.90;;;;;;6221278;23;20039;-95
2021/01/08 15:00:24;;;;;;;1999.90;999.90;;;3.80;99.90;;;;;;6220874;23;20100;-95
2021/01/08 15:02:52;;;;;;;1999.90;999.90;;;3.80;99.90;;;;;;6220995;23;20092;-95
2021/01/08 15:05:22;;;;;;;1999.90;999.90;;;3.80;99.90;;;;;;6221009;23;20028;-94
2021/01/08 15:07:53;;;;;;;1999.90;999.90;;;3.80;99.90;;;;;;6220684;23;20013;-94
2021/01/08 15:10:23;;;;;;;1999.90;999.90;;;3.80;99.90;;;;;;6220715;23;20459;-95
2021/01/08 15:12:55;;;;;;;1999.90;999.90;;;3.70;99.90;;;;;;6220587;23;20032;-95
2021/01/08 15:15:27;;;;;;;1999.90;999.90;;;3.70;99.90;;;;;;6220547;23;20100;-96
2021/01/08 15:17:57;;;;;;;1999.90;999.90;;;3.70;99.90;;;;;;6220592;23;20139;-95
2021/01/08 15:20:26;;;;;;;1999.90;999.90;;;3.70;99.90;;;;;;6219118;23;20047;-96
2021/01/08 15:23:01;;;;;;;1999.90;999.90;;;3.60;99.90;;;;;;6218990;23;20023;-95
2021/01/08 15:25:29;;;;;;;1999.90;999.90;;;3.60;99.90;;;;;;6220094;23;20020;-96
2021/01/08 15:27:56;;;;;;;1999.90;999.90;;;3.60;99.90;;;;;;6219439;23;20012;-96
2021/01/08 15:30:24;;;;;;;1999.90;999.90;;;3.60;99.90;;;;;;6219160;23;20022;-95
2021/01/08 15:32:54;;;;;;;1999.90;999.90;;;3.60;99.90;;;;;;6219832;23;20020;-96
2021/01/08 15:35:22;;;;;;;1999.90;999.90;;;3.60;99.90;;;;;;6219653;23;20020;-96
2021/01/08 15:37:53;;;;;;;1999.90;999.90;;;3.50;99.90;;;;;;6218901;23;20452;-96
2021/01/08 15:40:26;;;;;;;1999.90;999.90;;;3.50;99.90;;;;;;6219288;23;20020;-95
2021/01/08 15:42:53;;;;;;;1999.90;999.90;;;3.50;99.90;;;;;;6219675;23;20021;-96
2021/01/08 15:45:21;;;;;;;1999.90;999.90;;;3.50;99.90;;;;;;6219162;23;20020;-95
2021/01/08 15:47:50;;;;;;;1999.90;999.90;;;3.40;99.90;;;;;;6221842;23;20075;-96
2021/01/08 15:50:26;;;;;;;1999.90;999.90;;;3.40;99.90;;;;;;6220348;23;20040;-96
2021/01/08 15:52:56;;;;;;;1999.90;999.90;;;3.30;99.90;;;;;;6221549;23;20027;-95
2021/01/08 15:55:24;;;;;;;1999.90;999.90;;;3.30;99.90;;;;;;6223930;23;20021;-95
2021/01/08 15:57:52;;;;;;;1999.90;999.90;;;3.30;99.90;;;;;;6220902;23;20093;-96
2021/01/08 16:00:21;;;;;;;1999.90;999.90;;;3.20;99.90;;;;;;6221320;23;20020;-95
2021/01/08 16:03:11;;;;;;;1999.90;999.90;;;3.20;99.90;;;;;;6221085;23;20095;-95
2021/01/08 16:08:48;;;;;;;1999.90;999.90;;;3.10;99.90;;;;;;6068174;23;20025;-95
2021/01/08 16:11:15;;;;;;;1999.90;999.90;;;3.10;99.90;;;;;;6170217;23;20048;-95
2021/01/08 16:13:43;;;;;;;1999.90;999.90;;;3.00;99.90;;;;;;6221539;23;20020;-95
2021/01/08 16:16:31;;;;;;;1999.90;999.90;;;2.90;99.90;;;;;;6220498;23;20020;-94
2021/01/08 16:18:59;;;;;;;1999.90;999.90;;;2.90;99.90;;;;;;6220936;23;20444;-95
2021/01/08 16:21:39;;;;;;;1999.90;999.90;;;2.80;99.90;;;;;;6225322;23;20021;-94
2021/01/08 16:24:08;;;;;;;1999.90;999.90;;;2.80;99.90;;;;;;6232971;23;20012;-94
2021/01/08 16:26:38;;;;;;;1999.90;999.90;;;2.80;99.90;;;;;;6236094;23;20028;-95
2021/01/08 16:29:05;;;;;;;1999.90;999.90;;;2.70;99.90;;;;;;6236465;23;20021;-95
2021/01/08 16:31:50;;;;;;;1999.90;999.90;;;2.70;99.90;;;;;;6234934;23;20048;-94
2021/01/08 16:34:26;;;;;;;1999.90;999.90;;;2.60;99.90;;;;;;6235928;23;20267;-94
2021/01/08 16:36:55;;;;;;;;;;;2.50;99.90;;;;;;6228053;23;20016;-95
2021/01/08 16:39:32;;;;;;;1999.90;999.90;;;2.40;99.90;;;;;;6219584;23;19916;-95
2021/01/08 16:42:02;;;;;;;1999.90;999.90;;;2.30;99.90;;;;;;6219827;23;20027;-93
2021/01/08 16:44:29;;;;;;;1999.90;999.90;;;2.30;99.90;;;;;;6217642;23;20020;-95
2021/01/08 16:46:57;;;;;;;1999.90;999.90;;;2.30;99.90;;;;;;6218523;23;20017;-94
2021/01/08 16:49:25;;;;;;;1999.90;999.90;;;2.30;99.90;;;;;;6218132;23;20095;-95
2021/01/08 16:51:56;;;;;;;1999.90;999.90;;;2.30;99.90;;;;;;6217518;23;20447;-94
2021/01/08 16:54:29;;;;;;;;;;;2.30;99.90;;;;;;6218403;23;20023;-94
2021/01/08 16:57:30;;;;;;;1999.90;999.90;;;2.20;99.90;;;;;;6217623;23;19922;-94
2021/01/08 17:00:09;;;;;;;1999.90;999.90;;;2.10;99.90;;;;;;6215511;23;20075;-93
2021/01/08 17:02:37;;;;;;;1999.90;999.90;;;2.10;99.90;;;;;;6218091;23;20021;-94
2021/01/08 17:05:07;;;;;;;1999.90;999.90;;;2.10;99.90;;;;;;6218554;23;20017;-95
2021/01/08 17:07:35;;;;;;;1999.90;999.90;;;2.00;99.90;;;;;;6217531;23;20036;-94
2021/01/08 17:10:19;;;;;;;1999.90;999.90;;;2.00;99.90;;;;;;6217273;23;20051;-93
2021/01/08 17:12:48;;;;;;;1999.90;999.90;;;2.00;99.90;;;;;;6217111;23;20025;-93
2021/01/08 17:15:20;;;;;;;1999.90;999.90;;;1.90;99.90;;;;;;6217219;23;20096;-91
2021/01/08 17:18:00;;;;;;;1999.90;999.90;;;1.90;99.90;;;;;;6217368;23;20021;-92
2021/01/08 17:20:29;;;;;;;1999.90;999.90;;;1.90;99.90;;;;;;6217925;23;20103;-94
2021/01/08 17:23:08;;;;;;;1999.90;999.90;;;1.80;99.90;;;;;;6217019;23;20021;-94